Milford, MA (01757)

2:38 AM EDT on September 26, 2016 (GMT -0400)
Lucia and Clarridge Cir. | | Change Station
Active Advisory: Frost Advisory

Elev 357 ft 42.17 °N, 71.53 °W | Updated 1 minute ago

Clear
Clear
39.0 °F
Feels Like 39 °F
N
0.0
Wind Variable Wind from NW
Gusts 1.0 mph

Today
High -- | Low -- °F
--% Chance of Precip.
Yesterday
High -- | Low -- °F
Precip. -- in
Pressure 30.28 in
Visibility 10.0 miles
Clouds Clear
Windchill 39 °F
Dew Point 33 °F
Humidity 79%
Rainfall 0.00 in
Snow Depth Not available.
6:38 AM 6:35 PM
Waning Crescent, 21% visible
METAR KSFZ 260556Z AUTO 00000KT 10SM CLR 05/02 A3021 RMK AO2 SLP252 T00500022 10100 20044 53005
Pressure 30.28 in
Visibility 10.0 miles
Clouds Clear
Windchill 39 °F
Dew Point 33 °F
Humidity 79%
Rainfall 0.00 in
Snow Depth Not available.
6:38 AM 6:35 PM
Waning Crescent, 21% visible
METAR KSFZ 260556Z AUTO 00000KT 10SM CLR 05/02 A3021 RMK AO2 SLP252 T00500022 10100 20044 53005

10-Day Weather Forecast

Almanac

Astronomy

Sep. 26, 2016 Rise Set
Actual Time
Civil Twilight
Nautical Twilight
Astronomical Twilight
Moon
Length of Visible Light
Length of Day
Tomorrow will be .
, % of the Moon is Illuminated

Today's Extremes

State Highs State Lows

Community

WunderPhotos

Upload Photos

1,941,853 photos uploaded!

WunderBlog® & News

Nearby

Air Quality

  Air Quality AQ Index Pollutant
Not available.

Snow Depth

Station Depth Elevation

Earthquake Activity

City Distance Mag. Time & Date
Minimum magnitude displayed is 2.5.

Coastal Water Temperatures

Place Temperature

Stations

Nearby Weather Stations

Station Location Temp. Windchill Dew Point Humidity Wind Precip. Elev Updated Type
                   

Watches & Warnings

Frost Advisory
Issued: 10:05 PM EDT Sep. 25, 2016 – National Weather Service

... Frost advisory remains in effect from 2 am to 8 am EDT
Monday...

* location... Franklin... northern Worcester... Hampshire and
Hampden counties in northern and western Massachusetts as well
as northern Bristol and western Plymouth counties in interior
southeast Massachusetts.

* Temperatures... in the low to mid 30s.

* Timing... through early morning.

* Impacts... sensitive outdoor plants may be impacted if not
covered or brought inside.

Precautionary/preparedness actions...

A frost advisory means that widespread frost is expected.
Sensitive outdoor plants may be killed if left uncovered.



For the latest updates... please visit our webpage at
www.Weather.Gov/Boston

You can follow US on facebook at
www.Facebook.Com/nwsboston